sensor_id;sensor_type;location;lat;lon;timestamp;pressure;altitude;pressure_sealevel;temperature;humidity
85016;BME280;75339;50.216;20.512;2024-01-11T00:01:39;100015.81;;;-10.61;69.86
85016;BME280;75339;50.216;20.512;2024-01-11T00:04:06;100007.59;;;-10.64;70.65
85016;BME280;75339;50.216;20.512;2024-01-11T00:06:32;100002.91;;;-10.61;71.12
85016;BME280;75339;50.216;20.512;2024-01-11T00:08:59;99993.27;;;-10.57;70.79
85016;BME280;75339;50.216;20.512;2024-01-11T00:11:26;99989.23;;;-10.64;70.56
85016;BME280;75339;50.216;20.512;2024-01-11T00:13:52;99985.69;;;-10.73;70.72
85016;BME280;75339;50.216;20.512;2024-01-11T00:16:20;99996.23;;;-10.78;71.14
85016;BME280;75339;50.216;20.512;2024-01-11T00:18:47;99996.36;;;-10.81;70.96
85016;BME280;75339;50.216;20.512;2024-01-11T00:21:13;99993.01;;;-10.85;71.04
85016;BME280;75339;50.216;20.512;2024-01-11T00:23:40;99993.92;;;-10.86;71.31
85016;BME280;75339;50.216;20.512;2024-01-11T00:26:07;99990.55;;;-10.86;71.20
85016;BME280;75339;50.216;20.512;2024-01-11T00:28:33;99987.01;;;-10.90;71.06
85016;BME280;75339;50.216;20.512;2024-01-11T00:31:00;99988.61;;;-10.94;71.41
85016;BME280;75339;50.216;20.512;2024-01-11T00:33:27;99986.03;;;-10.94;71.64
85016;BME280;75339;50.216;20.512;2024-01-11T00:35:53;99986.85;;;-10.92;71.95
85016;BME280;75339;50.216;20.512;2024-01-11T00:38:20;99980.80;;;-10.93;71.71
85016;BME280;75339;50.216;20.512;2024-01-11T00:40:47;99978.27;;;-10.91;72.09
85016;BME280;75339;50.216;20.512;2024-01-11T00:43:13;99980.59;;;-10.75;72.40
85016;BME280;75339;50.216;20.512;2024-01-11T00:45:40;99975.14;;;-10.61;72.35
85016;BME280;75339;50.216;20.512;2024-01-11T00:48:07;99969.44;;;-10.50;72.03
85016;BME280;75339;50.216;20.512;2024-01-11T00:50:33;99968.29;;;-10.47;71.48
85016;BME280;75339;50.216;20.512;2024-01-11T00:53:00;99967.95;;;-10.45;71.78
85016;BME280;75339;50.216;20.512;2024-01-11T00:55:27;99963.30;;;-10.31;71.86
85016;BME280;75339;50.216;20.512;2024-01-11T00:57:54;99960.96;;;-10.26;71.49
85016;BME280;75339;50.216;20.512;2024-01-11T01:00:21;99962.94;;;-10.19;71.78
85016;BME280;75339;50.216;20.512;2024-01-11T01:02:47;99957.33;;;-9.99;72.01
85016;BME280;75339;50.216;20.512;2024-01-11T01:05:14;99948.89;;;-9.85;71.51
85016;BME280;75339;50.216;20.512;2024-01-11T01:07:40;99951.26;;;-9.83;71.15
85016;BME280;75339;50.216;20.512;2024-01-11T01:10:07;99952.58;;;-9.76;71.41
85016;BME280;75339;50.216;20.512;2024-01-11T01:12:37;99950.20;;;-9.64;71.43
85016;BME280;75339;50.216;20.512;2024-01-11T01:15:04;99942.98;;;-9.51;71.43
85016;BME280;75339;50.216;20.512;2024-01-11T01:17:31;99937.59;;;-9.56;70.37
85016;BME280;75339;50.216;20.512;2024-01-11T01:19:58;99931.98;;;-9.66;70.48
85016;BME280;75339;50.216;20.512;2024-01-11T01:22:24;99931.42;;;-9.71;70.68
85016;BME280;75339;50.216;20.512;2024-01-11T01:24:51;99925.55;;;-9.70;70.97
85016;BME280;75339;50.216;20.512;2024-01-11T01:27:17;99923.70;;;-9.82;70.24
85016;BME280;75339;50.216;20.512;2024-01-11T01:29:44;99921.16;;;-10.02;70.65
85016;BME280;75339;50.216;20.512;2024-01-11T01:32:11;99924.63;;;-10.04;71.86
85016;BME280;75339;50.216;20.512;2024-01-11T01:34:37;99924.89;;;-9.85;72.37
85016;BME280;75339;50.216;20.512;2024-01-11T01:37:04;99912.95;;;-9.62;71.93
85016;BME280;75339;50.216;20.512;2024-01-11T01:39:30;99905.58;;;-9.52;71.54
85016;BME280;75339;50.216;20.512;2024-01-11T01:41:57;99901.96;;;-9.47;71.28
85016;BME280;75339;50.216;20.512;2024-01-11T01:44:24;99904.02;;;-9.47;71.11
85016;BME280;75339;50.216;20.512;2024-01-11T01:46:51;99903.46;;;-9.48;71.11
85016;BME280;75339;50.216;20.512;2024-01-11T01:49:18;99903.61;;;-9.43;70.90
85016;BME280;75339;50.216;20.512;2024-01-11T01:51:49;99877.62;;;-9.63;70.81
85016;BME280;75339;50.216;20.512;2024-01-11T01:54:17;99913.73;;;-9.40;71.01
85016;BME280;75339;50.216;20.512;2024-01-11T01:56:45;99907.58;;;-9.27;71.17
85016;BME280;75339;50.216;20.512;2024-01-11T01:59:12;99897.03;;;-9.18;70.60
85016;BME280;75339;50.216;20.512;2024-01-11T02:01:40;99893.36;;;-9.23;70.32
85016;BME280;75339;50.216;20.512;2024-01-11T02:04:07;99904.77;;;-9.28;70.37
85016;BME280;75339;50.216;20.512;2024-01-11T02:06:34;99905.28;;;-9.29;70.75
85016;BME280;75339;50.216;20.512;2024-01-11T02:09:01;99895.21;;;-9.10;71.19
85016;BME280;75339;50.216;20.512;2024-01-11T02:11:32;99901.67;;;-8.99;70.49
85016;BME280;75339;50.216;20.512;2024-01-11T02:13:58;99905.48;;;-9.07;70.00
85016;BME280;75339;50.216;20.512;2024-01-11T02:16:25;99903.92;;;-9.18;69.88
85016;BME280;75339;50.216;20.512;2024-01-11T02:18:52;99904.83;;;-9.25;70.03
85016;BME280;75339;50.216;20.512;2024-01-11T02:21:19;99906.42;;;-9.29;70.15
85016;BME280;75339;50.216;20.512;2024-01-11T02:24:13;99909.88;;;-9.23;70.54
85016;BME280;75339;50.216;20.512;2024-01-11T02:27:01;99911.34;;;-9.16;70.76
85016;BME280;75339;50.216;20.512;2024-01-11T02:29:29;99911.02;;;-9.11;70.67
85016;BME280;75339;50.216;20.512;2024-01-11T02:32:00;99910.84;;;-9.06;70.81
85016;BME280;75339;50.216;20.512;2024-01-11T02:34:28;99909.10;;;-9.01;70.78
85016;BME280;75339;50.216;20.512;2024-01-11T02:36:56;99904.65;;;-9.01;69.92
85016;BME280;75339;50.216;20.512;2024-01-11T02:39:23;99904.16;;;-9.04;69.85
85016;BME280;75339;50.216;20.512;2024-01-11T02:41:53;99912.23;;;-9.06;70.00
85016;BME280;75339;50.216;20.512;2024-01-11T02:44:19;99901.55;;;-9.04;69.80
85016;BME280;75339;50.216;20.512;2024-01-11T02:46:46;99899.63;;;-9.05;70.11
85016;BME280;75339;50.216;20.512;2024-01-11T02:49:13;99901.20;;;-9.05;69.73
85016;BME280;75339;50.216;20.512;2024-01-11T02:51:39;99900.90;;;-9.06;69.94
85016;BME280;75339;50.216;20.512;2024-01-11T02:54:06;99899.95;;;-9.08;70.60
85016;BME280;75339;50.216;20.512;2024-01-11T02:56:32;99887.94;;;-9.04;70.46
85016;BME280;75339;50.216;20.512;2024-01-11T02:58:59;99879.89;;;-8.94;69.62
85016;BME280;75339;50.216;20.512;2024-01-11T03:01:26;99876.55;;;-8.95;68.75
85016;BME280;75339;50.216;20.512;2024-01-11T03:03:52;99867.95;;;-9.12;68.64
85016;BME280;75339;50.216;20.512;2024-01-11T03:06:19;99863.02;;;-9.30;68.67
85016;BME280;75339;50.216;20.512;2024-01-11T03:08:48;99866.06;;;-9.41;69.17
85016;BME280;75339;50.216;20.512;2024-01-11T03:11:17;99876.04;;;-9.45;69.59
85016;BME280;75339;50.216;20.512;2024-01-11T03:13:44;99876.73;;;-9.52;69.48
85016;BME280;75339;50.216;20.512;2024-01-11T03:16:11;99872.59;;;-9.61;69.15
85016;BME280;75339;50.216;20.512;2024-01-11T03:18:37;99866.16;;;-9.73;69.22
85016;BME280;75339;50.216;20.512;2024-01-11T03:21:04;99862.41;;;-9.86;69.47
85016;BME280;75339;50.216;20.512;2024-01-11T03:23:30;99853.02;;;-9.89;69.84
85016;BME280;75339;50.216;20.512;2024-01-11T03:25:57;99848.64;;;-9.93;69.78
85016;BME280;75339;50.216;20.512;2024-01-11T03:28:24;99838.62;;;-10.16;69.13
85016;BME280;75339;50.216;20.512;2024-01-11T03:30:50;99806.50;;;-10.63;69.19
85016;BME280;75339;50.216;20.512;2024-01-11T03:33:17;99833.33;;;-10.59;70.22
85016;BME280;75339;50.216;20.512;2024-01-11T03:35:43;99835.63;;;-10.57;71.19
85016;BME280;75339;50.216;20.512;2024-01-11T03:38:10;99843.67;;;-10.44;71.77
85016;BME280;75339;50.216;20.512;2024-01-11T03:40:37;99850.55;;;-10.31;71.71
85016;BME280;75339;50.216;20.512;2024-01-11T03:43:04;99842.55;;;-10.23;71.34
85016;BME280;75339;50.216;20.512;2024-01-11T03:45:30;99839.41;;;-10.20;71.09
85016;BME280;75339;50.216;20.512;2024-01-11T03:47:57;99836.38;;;-10.19;70.89
85016;BME280;75339;50.216;20.512;2024-01-11T03:50:23;99830.22;;;-10.19;70.94
85016;BME280;75339;50.216;20.512;2024-01-11T03:52:50;99827.68;;;-10.19;70.97
85016;BME280;75339;50.216;20.512;2024-01-11T03:55:17;99827.16;;;-10.11;70.95
85016;BME280;75339;50.216;20.512;2024-01-11T03:57:43;99827.30;;;-10.09;70.64
85016;BME280;75339;50.216;20.512;2024-01-11T04:00:11;99820.04;;;-10.08;70.65
85016;BME280;75339;50.216;20.512;2024-01-11T04:02:37;99817.21;;;-9.94;71.48
85016;BME280;75339;50.216;20.512;2024-01-11T04:05:04;99809.17;;;-9.76;71.09
85016;BME280;75339;50.216;20.512;2024-01-11T04:07:31;99805.25;;;-9.66;70.67
85016;BME280;75339;50.216;20.512;2024-01-11T04:09:58;99796.59;;;-9.71;70.03
85016;BME280;75339;50.216;20.512;2024-01-11T04:12:25;99794.15;;;-9.82;70.35
85016;BME280;75339;50.216;20.512;2024-01-11T04:14:52;99792.06;;;-9.75;71.21
85016;BME280;75339;50.216;20.512;2024-01-11T04:17:18;99797.22;;;-9.56;71.48
85016;BME280;75339;50.216;20.512;2024-01-11T04:19:45;99793.02;;;-9.31;71.49
85016;BME280;75339;50.216;20.512;2024-01-11T04:22:11;99786.12;;;-9.05;70.96
85016;BME280;75339;50.216;20.512;2024-01-11T04:24:38;99781.45;;;-9.00;70.29
85016;BME280;75339;50.216;20.512;2024-01-11T04:27:04;99777.86;;;-8.98;70.53
85016;BME280;75339;50.216;20.512;2024-01-11T04:29:31;99778.66;;;-8.85;70.92
85016;BME280;75339;50.216;20.512;2024-01-11T04:31:58;99774.27;;;-8.73;70.40
85016;BME280;75339;50.216;20.512;2024-01-11T04:34:25;99773.10;;;-8.62;70.25
85016;BME280;75339;50.216;20.512;2024-01-11T04:36:51;99775.92;;;-8.58;69.95
85016;BME280;75339;50.216;20.512;2024-01-11T04:39:18;99783.20;;;-8.58;70.04
85016;BME280;75339;50.216;20.512;2024-01-11T04:41:47;99798.59;;;-8.64;70.39
85016;BME280;75339;50.216;20.512;2024-01-11T04:44:14;99799.46;;;-8.69;70.90
85016;BME280;75339;50.216;20.512;2024-01-11T04:46:41;99781.95;;;-8.73;70.82
85016;BME280;75339;50.216;20.512;2024-01-11T04:49:08;99768.08;;;-8.68;70.06
85016;BME280;75339;50.216;20.512;2024-01-11T04:51:35;99758.74;;;-8.65;69.28
85016;BME280;75339;50.216;20.512;2024-01-11T04:54:02;99746.16;;;-8.61;68.93
85016;BME280;75339;50.216;20.512;2024-01-11T04:56:28;99735.92;;;-8.58;69.29
85016;BME280;75339;50.216;20.512;2024-01-11T04:58:56;99732.12;;;-8.53;69.06
85016;BME280;75339;50.216;20.512;2024-01-11T05:01:22;99729.77;;;-8.61;68.65
85016;BME280;75339;50.216;20.512;2024-01-11T05:03:49;99725.05;;;-8.63;68.59
85016;BME280;75339;50.216;20.512;2024-01-11T05:06:19;99724.34;;;-8.69;68.90
85016;BME280;75339;50.216;20.512;2024-01-11T05:08:47;99720.77;;;-8.54;69.95
85016;BME280;75339;50.216;20.512;2024-01-11T05:11:21;99720.00;;;-8.29;69.61
85016;BME280;75339;50.216;20.512;2024-01-11T05:13:48;99716.66;;;-8.10;69.50
85016;BME280;75339;50.216;20.512;2024-01-11T05:16:28;99724.46;;;-8.05;69.24
85016;BME280;75339;50.216;20.512;2024-01-11T05:18:56;99722.11;;;-8.10;68.61
85016;BME280;75339;50.216;20.512;2024-01-11T05:21:24;99727.22;;;-8.20;68.67
85016;BME280;75339;50.216;20.512;2024-01-11T05:23:51;99729.83;;;-8.28;68.73
85016;BME280;75339;50.216;20.512;2024-01-11T05:26:19;99717.65;;;-8.43;68.97
85016;BME280;75339;50.216;20.512;2024-01-11T05:28:46;99727.20;;;-8.49;68.78
85016;BME280;75339;50.216;20.512;2024-01-11T05:31:14;99733.19;;;-8.61;68.74
85016;BME280;75339;50.216;20.512;2024-01-11T05:33:43;99726.08;;;-8.71;69.38
85016;BME280;75339;50.216;20.512;2024-01-11T05:36:10;99709.36;;;-8.73;69.78
85016;BME280;75339;50.216;20.512;2024-01-11T05:38:39;99707.29;;;-8.63;70.33
85016;BME280;75339;50.216;20.512;2024-01-11T05:41:06;99718.05;;;-8.48;70.33
85016;BME280;75339;50.216;20.512;2024-01-11T05:43:34;99729.52;;;-8.39;70.04
85016;BME280;75339;50.216;20.512;2024-01-11T05:46:00;99735.88;;;-8.38;69.58
85016;BME280;75339;50.216;20.512;2024-01-11T05:48:27;99739.81;;;-8.38;69.18
85016;BME280;75339;50.216;20.512;2024-01-11T05:50:53;99739.61;;;-8.39;69.38
85016;BME280;75339;50.216;20.512;2024-01-11T05:53:20;99730.17;;;-8.39;68.88
85016;BME280;75339;50.216;20.512;2024-01-11T05:55:48;99739.65;;;-8.47;68.85
85016;BME280;75339;50.216;20.512;2024-01-11T05:58:14;99737.05;;;-8.47;69.10
85016;BME280;75339;50.216;20.512;2024-01-11T06:00:41;99738.05;;;-8.42;68.87
85016;BME280;75339;50.216;20.512;2024-01-11T06:03:08;99722.81;;;-8.37;69.20
85016;BME280;75339;50.216;20.512;2024-01-11T06:05:35;99709.48;;;-8.31;69.62
85016;BME280;75339;50.216;20.512;2024-01-11T06:08:01;99705.95;;;-8.30;69.05
85016;BME280;75339;50.216;20.512;2024-01-11T06:10:28;99694.34;;;-8.36;68.72
85016;BME280;75339;50.216;20.512;2024-01-11T06:12:55;99686.11;;;-8.42;68.96
85016;BME280;75339;50.216;20.512;2024-01-11T06:15:23;99633.96;;;-8.76;69.05
85016;BME280;75339;50.216;20.512;2024-01-11T06:17:49;99690.58;;;-8.42;69.68
85016;BME280;75339;50.216;20.512;2024-01-11T06:20:16;99691.78;;;-8.36;69.13
85016;BME280;75339;50.216;20.512;2024-01-11T06:22:42;99679.02;;;-8.35;69.35
85016;BME280;75339;50.216;20.512;2024-01-11T06:25:09;99665.60;;;-8.30;69.26
85016;BME280;75339;50.216;20.512;2024-01-11T06:27:36;99657.64;;;-8.26;69.81
85016;BME280;75339;50.216;20.512;2024-01-11T06:30:03;99618.06;;;-8.40;69.59
85016;BME280;75339;50.216;20.512;2024-01-11T06:32:30;99638.92;;;-8.25;69.37
85016;BME280;75339;50.216;20.512;2024-01-11T06:34:56;99640.63;;;-8.28;69.46
85016;BME280;75339;50.216;20.512;2024-01-11T06:37:23;99634.63;;;-8.28;68.60
85016;BME280;75339;50.216;20.512;2024-01-11T06:39:50;99630.24;;;-8.27;69.08
85016;BME280;75339;50.216;20.512;2024-01-11T06:42:16;99622.25;;;-8.14;68.83
85016;BME280;75339;50.216;20.512;2024-01-11T06:44:43;99616.27;;;-7.96;68.75
85016;BME280;75339;50.216;20.512;2024-01-11T06:47:10;99590.49;;;-7.92;68.37
85016;BME280;75339;50.216;20.512;2024-01-11T06:49:39;99612.11;;;-7.53;67.72
85016;BME280;75339;50.216;20.512;2024-01-11T06:52:07;99609.27;;;-7.32;66.67
85016;BME280;75339;50.216;20.512;2024-01-11T06:54:34;99609.06;;;-7.24;66.67
85016;BME280;75339;50.216;20.512;2024-01-11T06:57:01;99612.42;;;-7.28;66.04
85016;BME280;75339;50.216;20.512;2024-01-11T06:59:27;99614.81;;;-7.34;66.44
85016;BME280;75339;50.216;20.512;2024-01-11T07:01:54;99608.39;;;-7.33;66.18
85016;BME280;75339;50.216;20.512;2024-01-11T07:04:20;99615.85;;;-7.18;66.00
85016;BME280;75339;50.216;20.512;2024-01-11T07:06:47;99622.63;;;-7.00;65.46
85016;BME280;75339;50.216;20.512;2024-01-11T07:09:14;99619.42;;;-6.75;64.78
85016;BME280;75339;50.216;20.512;2024-01-11T07:11:43;99612.77;;;-6.55;64.50
85016;BME280;75339;50.216;20.512;2024-01-11T07:14:10;99608.23;;;-6.32;63.94
85016;BME280;75339;50.216;20.512;2024-01-11T07:16:37;99592.48;;;-6.07;63.88
85016;BME280;75339;50.216;20.512;2024-01-11T07:19:03;99595.67;;;-5.83;63.46
85016;BME280;75339;50.216;20.512;2024-01-11T07:21:30;99589.63;;;-5.54;62.91
85016;BME280;75339;50.216;20.512;2024-01-11T07:23:58;99589.40;;;-5.40;62.58
85016;BME280;75339;50.216;20.512;2024-01-11T07:26:25;99587.53;;;-5.43;62.04
85016;BME280;75339;50.216;20.512;2024-01-11T07:28:53;99594.38;;;-5.62;62.86
85016;BME280;75339;50.216;20.512;2024-01-11T07:31:23;99598.12;;;-5.70;63.18
85016;BME280;75339;50.216;20.512;2024-01-11T07:33:49;99591.73;;;-5.75;63.22
85016;BME280;75339;50.216;20.512;2024-01-11T07:36:16;99591.43;;;-5.78;63.48
85016;BME280;75339;50.216;20.512;2024-01-11T07:38:43;99590.63;;;-5.76;63.43
85016;BME280;75339;50.216;20.512;2024-01-11T07:41:10;99585.87;;;-5.71;63.31
85016;BME280;75339;50.216;20.512;2024-01-11T07:43:37;99587.73;;;-5.68;63.28
85016;BME280;75339;50.216;20.512;2024-01-11T07:46:04;99592.25;;;-5.60;63.09
85016;BME280;75339;50.216;20.512;2024-01-11T07:48:32;99590.79;;;-5.43;63.16
85016;BME280;75339;50.216;20.512;2024-01-11T07:50:59;99587.59;;;-5.41;63.52
85016;BME280;75339;50.216;20.512;2024-01-11T07:53:26;99587.27;;;-5.37;62.49
85016;BME280;75339;50.216;20.512;2024-01-11T07:55:53;99592.84;;;-5.25;62.27
85016;BME280;75339;50.216;20.512;2024-01-11T07:58:19;99588.23;;;-5.08;61.18
85016;BME280;75339;50.216;20.512;2024-01-11T08:00:47;99579.19;;;-4.95;60.80
85016;BME280;75339;50.216;20.512;2024-01-11T08:03:15;99577.64;;;-4.83;60.42
85016;BME280;75339;50.216;20.512;2024-01-11T08:05:42;99583.99;;;-4.75;59.93
85016;BME280;75339;50.216;20.512;2024-01-11T08:08:10;99585.17;;;-4.68;60.49
85016;BME280;75339;50.216;20.512;2024-01-11T08:10:37;99587.90;;;-4.64;59.79
85016;BME280;75339;50.216;20.512;2024-01-11T08:13:04;99585.63;;;-4.61;59.32
85016;BME280;75339;50.216;20.512;2024-01-11T08:15:31;99572.83;;;-4.59;59.55
85016;BME280;75339;50.216;20.512;2024-01-11T08:17:57;99563.00;;;-4.56;59.24
85016;BME280;75339;50.216;20.512;2024-01-11T08:20:24;99555.58;;;-4.48;58.93
85016;BME280;75339;50.216;20.512;2024-01-11T08:22:51;99565.17;;;-4.40;58.78
85016;BME280;75339;50.216;20.512;2024-01-11T08:25:18;99558.85;;;-4.35;58.40
85016;BME280;75339;50.216;20.512;2024-01-11T08:27:44;99559.20;;;-4.27;58.48
85016;BME280;75339;50.216;20.512;2024-01-11T08:30:11;99555.48;;;-4.25;58.95
85016;BME280;75339;50.216;20.512;2024-01-11T08:32:39;99553.39;;;-4.21;59.60
85016;BME280;75339;50.216;20.512;2024-01-11T08:35:11;99549.21;;;-4.18;60.07
85016;BME280;75339;50.216;20.512;2024-01-11T08:37:38;99541.32;;;-4.18;59.73
85016;BME280;75339;50.216;20.512;2024-01-11T08:40:06;99541.48;;;-4.09;60.06
85016;BME280;75339;50.216;20.512;2024-01-11T08:42:33;99544.42;;;-4.04;59.68
85016;BME280;75339;50.216;20.512;2024-01-11T08:44:59;99539.04;;;-4.01;60.05
85016;BME280;75339;50.216;20.512;2024-01-11T08:47:33;99538.15;;;-3.98;59.78
85016;BME280;75339;50.216;20.512;2024-01-11T08:50:01;99538.79;;;-3.95;60.09
85016;BME280;75339;50.216;20.512;2024-01-11T08:52:32;99541.79;;;-3.89;59.49
85016;BME280;75339;50.216;20.512;2024-01-11T08:55:00;99547.63;;;-3.85;60.39
85016;BME280;75339;50.216;20.512;2024-01-11T08:57:26;99549.41;;;-3.83;60.13
85016;BME280;75339;50.216;20.512;2024-01-11T08:59:53;99537.13;;;-3.79;59.75
85016;BME280;75339;50.216;20.512;2024-01-11T09:02:21;99532.85;;;-3.79;60.08
85016;BME280;75339;50.216;20.512;2024-01-11T09:04:47;99539.02;;;-3.80;59.56
85016;BME280;75339;50.216;20.512;2024-01-11T09:07:14;99543.27;;;-3.77;59.57
85016;BME280;75339;50.216;20.512;2024-01-11T09:09:42;99499.85;;;-3.92;58.91
85016;BME280;75339;50.216;20.512;2024-01-11T09:12:08;99520.60;;;-3.75;59.68
85016;BME280;75339;50.216;20.512;2024-01-11T09:14:35;99522.73;;;-3.73;60.01
85016;BME280;75339;50.216;20.512;2024-01-11T09:17:02;99523.09;;;-3.64;59.45
85016;BME280;75339;50.216;20.512;2024-01-11T09:19:29;99529.37;;;-3.43;59.18
85016;BME280;75339;50.216;20.512;2024-01-11T09:21:55;99538.20;;;-3.14;59.06
85016;BME280;75339;50.216;20.512;2024-01-11T09:24:22;99543.67;;;-3.05;58.60
85016;BME280;75339;50.216;20.512;2024-01-11T09:26:48;99538.78;;;-3.12;58.69
85016;BME280;75339;50.216;20.512;2024-01-11T09:29:16;99539.89;;;-3.19;59.46
85016;BME280;75339;50.216;20.512;2024-01-11T09:31:43;99539.52;;;-3.10;59.56
85016;BME280;75339;50.216;20.512;2024-01-11T09:34:09;99526.27;;;-2.99;58.94
85016;BME280;75339;50.216;20.512;2024-01-11T09:36:37;99519.77;;;-2.98;58.63
85016;BME280;75339;50.216;20.512;2024-01-11T09:39:05;99527.55;;;-2.98;58.57
85016;BME280;75339;50.216;20.512;2024-01-11T09:41:35;99523.64;;;-2.96;58.98
85016;BME280;75339;50.216;20.512;2024-01-11T09:44:04;99505.76;;;-3.00;58.17
85016;BME280;75339;50.216;20.512;2024-01-11T09:46:31;99513.08;;;-2.88;58.55
85016;BME280;75339;50.216;20.512;2024-01-11T09:48:58;99515.30;;;-2.63;57.88
85016;BME280;75339;50.216;20.512;2024-01-11T09:51:29;99516.02;;;-2.47;56.82
85016;BME280;75339;50.216;20.512;2024-01-11T09:53:56;99519.52;;;-2.45;56.78
85016;BME280;75339;50.216;20.512;2024-01-11T09:56:25;99521.97;;;-2.43;56.11
85016;BME280;75339;50.216;20.512;2024-01-11T09:58:54;99518.83;;;-2.39;56.05
85016;BME280;75339;50.216;20.512;2024-01-11T10:01:21;99521.71;;;-2.30;55.37
85016;BME280;75339;50.216;20.512;2024-01-11T10:03:48;99515.67;;;-1.97;55.21
85016;BME280;75339;50.216;20.512;2024-01-11T10:06:17;99512.46;;;-1.78;54.79
85016;BME280;75339;50.216;20.512;2024-01-11T10:08:44;99506.86;;;-1.81;54.05
85016;BME280;75339;50.216;20.512;2024-01-11T10:11:10;99494.40;;;-1.99;53.96
85016;BME280;75339;50.216;20.512;2024-01-11T10:13:37;99486.81;;;-2.15;53.60
85016;BME280;75339;50.216;20.512;2024-01-11T10:16:12;99475.18;;;-2.29;53.89
85016;BME280;75339;50.216;20.512;2024-01-11T10:18:42;99470.59;;;-2.37;54.13
85016;BME280;75339;50.216;20.512;2024-01-11T10:21:08;99456.34;;;-2.46;54.11
85016;BME280;75339;50.216;20.512;2024-01-11T10:23:36;99460.06;;;-2.49;54.36
85016;BME280;75339;50.216;20.512;2024-01-11T10:26:03;99465.09;;;-2.49;54.22
85016;BME280;75339;50.216;20.512;2024-01-11T10:28:30;99460.02;;;-2.44;54.40
85016;BME280;75339;50.216;20.512;2024-01-11T10:30:56;99460.86;;;-2.40;53.87
85016;BME280;75339;50.216;20.512;2024-01-11T10:33:23;99453.35;;;-2.37;53.79
85016;BME280;75339;50.216;20.512;2024-01-11T10:35:50;99461.81;;;-2.36;53.97
85016;BME280;75339;50.216;20.512;2024-01-11T10:38:17;99459.90;;;-2.42;53.93
85016;BME280;75339;50.216;20.512;2024-01-11T10:40:45;99460.40;;;-2.43;54.03
85016;BME280;75339;50.216;20.512;2024-01-11T10:43:14;99456.12;;;-2.42;54.08
85016;BME280;75339;50.216;20.512;2024-01-11T10:45:48;99460.19;;;-2.39;53.64
85016;BME280;75339;50.216;20.512;2024-01-11T10:48:16;99446.06;;;-2.38;53.51
85016;BME280;75339;50.216;20.512;2024-01-11T10:50:44;99449.23;;;-2.36;53.22
85016;BME280;75339;50.216;20.512;2024-01-11T10:53:35;99449.00;;;-2.33;52.86
85016;BME280;75339;50.216;20.512;2024-01-11T10:56:06;99441.95;;;-2.32;53.38
85016;BME280;75339;50.216;20.512;2024-01-11T10:58:35;99449.52;;;-2.33;53.59
85016;BME280;75339;50.216;20.512;2024-01-11T11:01:02;99434.39;;;-2.31;53.94
85016;BME280;75339;50.216;20.512;2024-01-11T11:03:31;99445.63;;;-2.30;53.71
85016;BME280;75339;50.216;20.512;2024-01-11T11:06:01;99450.62;;;-2.30;54.11
85016;BME280;75339;50.216;20.512;2024-01-11T11:08:28;99451.77;;;-2.32;54.91
85016;BME280;75339;50.216;20.512;2024-01-11T11:10:56;99463.40;;;-2.36;54.87
85016;BME280;75339;50.216;20.512;2024-01-11T11:13:26;99466.69;;;-2.35;54.84
85016;BME280;75339;50.216;20.512;2024-01-11T11:15:53;99449.03;;;-2.37;55.10
85016;BME280;75339;50.216;20.512;2024-01-11T11:18:22;99446.83;;;-2.42;54.71
85016;BME280;75339;50.216;20.512;2024-01-11T11:20:49;99444.57;;;-2.48;55.33
85016;BME280;75339;50.216;20.512;2024-01-11T11:23:18;99443.69;;;-2.54;55.22
85016;BME280;75339;50.216;20.512;2024-01-11T11:25:46;99440.61;;;-2.58;55.95
85016;BME280;75339;50.216;20.512;2024-01-11T11:28:15;99430.05;;;-2.65;55.56
85016;BME280;75339;50.216;20.512;2024-01-11T11:30:44;99432.35;;;-2.68;55.89
85016;BME280;75339;50.216;20.512;2024-01-11T11:33:16;99426.26;;;-2.69;56.41
85016;BME280;75339;50.216;20.512;2024-01-11T11:35:43;99433.83;;;-2.70;57.40
85016;BME280;75339;50.216;20.512;2024-01-11T11:38:17;99438.41;;;-2.72;57.64
85016;BME280;75339;50.216;20.512;2024-01-11T11:40:46;99431.84;;;-2.74;56.96
85016;BME280;75339;50.216;20.512;2024-01-11T11:43:13;99429.27;;;-2.73;57.04
85016;BME280;75339;50.216;20.512;2024-01-11T11:45:40;99414.80;;;-2.72;57.03
85016;BME280;75339;50.216;20.512;2024-01-11T11:53:36;99410.27;;;-2.75;58.22
85016;BME280;75339;50.216;20.512;2024-01-11T11:56:03;99409.09;;;-2.73;58.10
85016;BME280;75339;50.216;20.512;2024-01-11T11:58:30;99376.28;;;-2.80;57.47
85016;BME280;75339;50.216;20.512;2024-01-11T12:00:59;99385.70;;;-2.71;58.19
85016;BME280;75339;50.216;20.512;2024-01-11T12:03:29;99385.86;;;-2.72;57.99
85016;BME280;75339;50.216;20.512;2024-01-11T12:06:00;99383.74;;;-2.74;58.24
85016;BME280;75339;50.216;20.512;2024-01-11T12:08:26;99356.46;;;-2.86;57.94
85016;BME280;75339;50.216;20.512;2024-01-11T12:10:54;99370.02;;;-2.77;58.22
85016;BME280;75339;50.216;20.512;2024-01-11T12:13:20;99361.92;;;-2.77;58.36
85016;BME280;75339;50.216;20.512;2024-01-11T12:15:48;99349.75;;;-2.75;58.69
85016;BME280;75339;50.216;20.512;2024-01-11T12:18:14;99330.49;;;-2.78;58.47
85016;BME280;75339;50.216;20.512;2024-01-11T12:20:41;99359.29;;;-2.56;59.01
85016;BME280;75339;50.216;20.512;2024-01-11T12:23:08;99362.80;;;-2.59;59.00
85016;BME280;75339;50.216;20.512;2024-01-11T12:25:35;99361.29;;;-2.63;59.50
85016;BME280;75339;50.216;20.512;2024-01-11T12:28:02;99353.66;;;-2.65;59.83
85016;BME280;75339;50.216;20.512;2024-01-11T12:30:29;99353.16;;;-2.64;60.04
85016;BME280;75339;50.216;20.512;2024-01-11T12:32:59;99345.36;;;-2.60;60.30
85016;BME280;75339;50.216;20.512;2024-01-11T12:35:31;99334.23;;;-2.57;60.46
85016;BME280;75339;50.216;20.512;2024-01-11T12:38:03;99335.42;;;-2.58;60.14
85016;BME280;75339;50.216;20.512;2024-01-11T12:40:34;99341.98;;;-2.58;60.99
85016;BME280;75339;50.216;20.512;2024-01-11T12:43:01;99332.69;;;-2.57;60.61
85016;BME280;75339;50.216;20.512;2024-01-11T12:45:28;99334.30;;;-2.56;60.80
85016;BME280;75339;50.216;20.512;2024-01-11T12:47:56;99341.39;;;-2.55;61.17
85016;BME280;75339;50.216;20.512;2024-01-11T12:50:23;99351.48;;;-2.52;60.86
85016;BME280;75339;50.216;20.512;2024-01-11T12:53:14;99361.81;;;-2.52;60.14
85016;BME280;75339;50.216;20.512;2024-01-11T12:55:48;99364.02;;;-2.53;60.44